Latest Coastal Weather Observations for Norfolk Island

IDN60701

Issued at 12:01 pm EDT Sunday 26 February 2017 (issued every 10 minutes, with the page automatically refreshed every 10 minutes)

About coastal observations | Map of coastal stations | Coastal observations for NSW | Marine services | Other Formats
Station Details ID: 200288 Name: NORFOLK ISLAND AERO Lat: -29.04 Lon: 167.94 Height: 111.73 m
Data from the previous 72 hours. | See also: Recent months at Norfolk Island
Date/Time
EDT
Temp
°C
Wind Pressure Rain since
9am
mm
Weather Cloud Vis
km
Sea
Height
m
Swell
Dir  Spd
kts
Gust
kts
hPa Trend Height
m
Period
s
Dir
26/12:00pm 24.0 E 12 17 1015.5 - 0.0 - Mostly cloudy 10 - - - -
26/11:30am 24.3 E 14 18 1015.7 - 0.0 - Partly cloudy 10 - - - -
26/11:00am 24.1 E 17 21 1015.5 - 0.0 - Partly cloudy 10 - - - -
26/10:30am 23.9 E 14 19 1015.5 - 0.0 - Partly cloudy 10 - - - -
26/10:00am 23.3 E 13 19 1015.6 - 0.0 - Partly cloudy 10 - - - -
26/09:30am 23.2 E 11 16 1015.5 - 0.0 - Partly cloudy 10 - - - -
26/09:00am 22.9 E 10 14 1015.4 - 10.0 - Cloudy 10 - - - -
26/08:30am 22.7 E 13 17 1015.2 - 10.0 - Partly cloudy 10 - - - -
26/08:00am 22.5 E 10 15 1015.2 - 10.0 - Partly cloudy 10 - - - -
26/07:30am 22.0 E 11 15 1014.9 - 10.0 - Partly cloudy 10 - - - -
26/07:00am 21.4 E 10 17 1014.6 - 10.0 - Partly cloudy 10 - - - -
26/06:30am 20.8 E 10 15 1014.3 - 10.0 - Partly cloudy 10 - - - -
26/06:00am 20.1 E 9 12 1014.1 - 10.0 - - 10 - - - -
26/05:30am 20.2 E 10 15 1013.8 - 10.0 - Partly cloudy 10 - - - -
26/05:00am 20.3 E 10 14 1013.4 - 10.0 - Partly cloudy 10 - - - -
26/04:30am 20.3 E 8 13 1013.3 - 10.0 - Partly cloudy 10 - - - -
26/04:00am 19.9 E 8 11 1013.1 - 10.0 - Partly cloudy 10 - - - -
26/03:30am 19.9 E 10 14 1013.1 - 10.0 - Partly cloudy 10 - - - -
26/03:00am 20.0 E 8 12 1013.1 - 10.0 Showers Cloudy 10 - - - -
26/02:37am 20.1 ESE 7 12 1013.3 - 8.2 - Partly cloudy 6 - - - -
26/02:31am 20.0 ESE 5 8 1013.3 - 7.2 - Partly cloudy 10 - - - -
26/02:30am 19.9 ESE 5 8 1013.3 - 7.2 - Partly cloudy 10 - - - -
26/02:00am 20.1 ENE 13 18 1013.6 - 4.8 - Partly cloudy 6 - - - -
26/01:44am 19.6 E 12 19 1013.6 - 3.0 - Partly cloudy 5 - - - -
26/01:30am 20.5 E 9 17 1013.6 - 1.0 - Partly cloudy 10 - - - -
26/01:00am 21.0 E 7 9 1013.8 - 0.6 - Partly cloudy 10 - - - -
26/12:30am 20.8 E 8 10 1014.0 - 0.6 - Partly cloudy 10 - - - -
26/12:00am 20.4 E 8 11 1014.1 - 0.6 Rain Mostly clear 10 - - - -
 
Date/Time
EDT
Temp
°C
Wind Pressure Rain since
9am
mm
Weather Cloud Vis
km
Sea
Height
m
Swell
Dir  Spd
kts
Gust
kts
hPa Trend Height
m
Period
s
Dir
25/11:30pm 20.1 ESE 8 10 1014.4 - 0.6 - Partly cloudy 10 - - - -
25/11:14pm 20.4 E 10 16 1014.5 - 0.6 - Partly cloudy 6 - - - -
25/11:00pm 21.6 E 8 11 1014.4 - 0.0 - Partly cloudy 10 - - - -
25/10:30pm 21.6 E 8 11 1014.4 - 0.0 - Partly cloudy 10 - - - -
25/10:00pm 21.6 E 10 15 1014.3 - 0.0 - Partly cloudy 10 - - - -
25/09:30pm 21.4 ESE 10 16 1014.2 - 0.0 - Partly cloudy 10 - - - -
25/09:00pm 21.1 E 10 14 1014.2 - 0.0 - Mostly clear 10 - - - -
25/08:30pm 21.4 E 9 15 1014.1 - 0.0 - Partly cloudy 10 - - - -
25/08:00pm 21.4 E 10 15 1014.1 - 0.0 - Partly cloudy 10 - - - -
25/07:30pm 21.3 ESE 11 16 1013.8 - 0.0 - Partly cloudy 10 - - - -
25/07:00pm 21.3 E 10 14 1013.6 - 0.0 - Partly cloudy 10 - - - -
25/06:30pm 21.2 E 9 13 1013.4 - 0.0 - Partly cloudy 10 - - - -
25/06:00pm 21.9 E 10 15 1013.1 - 0.0 - Mostly clear 10 - - - -
25/05:30pm 22.4 ESE 10 15 1013.0 - 0.0 - Partly cloudy 10 - - - -
25/05:00pm 23.4 ESE 9 14 1012.8 - 0.0 - Partly cloudy 10 - - - -
25/04:30pm 23.7 E 12 18 1012.6 - 0.0 - Partly cloudy 10 - - - -
25/04:00pm 24.3 ESE 10 15 1012.5 - 0.0 - Partly cloudy 10 - - - -
25/03:30pm 23.6 ESE 10 16 1012.5 - 0.0 - Partly cloudy 10 - - - -
25/03:00pm 23.6 SE 12 18 1012.5 - 0.0 - Partly cloudy 10 - - - -
25/02:30pm 24.1 ESE 13 19 1012.7 - 0.0 - Partly cloudy 10 - - - -
25/02:00pm 23.7 SE 12 18 1013.0 - 0.0 - Partly cloudy 10 - - - -
25/01:30pm 24.1 ESE 12 17 1013.3 - 0.0 - Partly cloudy 10 - - - -
25/01:00pm 23.0 ESE 12 17 1013.4 - 0.0 - Partly cloudy 10 - - - -
25/12:30pm 24.6 ESE 12 19 1013.7 - 0.0 - Partly cloudy 10 - - - -
25/12:00pm 23.4 ESE 12 17 1014.0 - 0.0 - Partly cloudy 10 - - - -
25/11:30am 23.2 ESE 10 15 1014.2 - 0.0 - Partly cloudy 10 - - - -
25/11:00am 23.6 ESE 10 15 1014.3 - 0.0 - Partly cloudy 10 - - - -
25/10:30am 23.4 ESE 11 16 1014.4 - 0.0 - Partly cloudy 10 - - - -
25/10:00am 24.0 ESE 10 15 1014.5 - 0.0 - Partly cloudy 10 - - - -
25/09:30am 23.5 ESE 9 14 1014.5 - 0.0 - Partly cloudy 10 - - - -
25/09:00am 23.3 ESE 10 15 1014.4 - 0.0 - Mostly clear 10 - - - -
25/08:30am 23.8 ESE 9 14 1014.4 - 0.0 - - 10 - - - -
25/08:00am 22.5 ESE 10 14 1014.5 - 0.0 - Partly cloudy 10 - - - -
25/07:30am 21.4 SE 8 11 1014.4 - 0.0 - Partly cloudy 10 - - - -
25/07:00am 22.2 ESE 8 10 1014.3 - 0.0 - Partly cloudy 10 - - - -
25/06:30am 21.5 ESE 6 8 1014.3 - 0.0 - Partly cloudy 10 - - - -
25/06:00am 21.1 SE 8 13 1014.2 - 0.0 - Cloudy 10 - - - -
25/05:30am 20.5 ESE 7 12 1014.0 - 0.0 - Partly cloudy 10 - - - -
25/05:00am 20.4 ESE 7 10 1013.9 - 0.0 - Partly cloudy 10 - - - -
25/04:30am 20.5 ESE 7 11 1013.8 - 0.0 - Partly cloudy 10 - - - -
25/04:00am 20.3 ESE 8 13 1013.7 - 0.0 - Partly cloudy 10 - - - -
25/03:30am 20.3 ESE 8 10 1013.8 - 0.0 - Partly cloudy 10 - - - -
25/03:00am 20.3 ESE 8 14 1013.7 - 0.0 - Mostly clear 10 - - - -
25/02:30am 20.3 ESE 7 12 1013.8 - 0.0 - Partly cloudy 10 - - - -
25/02:00am 20.2 E 7 11 1014.0 - 0.0 - Partly cloudy 10 - - - -
25/01:30am 20.6 ESE 7 11 1014.2 - 0.0 - Partly cloudy 10 - - - -
25/01:00am 20.2 ESE 7 10 1014.5 - 0.0 - Partly cloudy 10 - - - -
25/12:30am 20.5 E 7 10 1014.8 - 0.0 - Partly cloudy 10 - - - -
25/12:00am 20.4 E 9 12 1015.0 - 0.0 - Mostly clear 10 - - - -
 
Date/Time
EDT
Temp
°C
Wind Pressure Rain since
9am
mm
Weather Cloud Vis
km
Sea
Height
m
Swell
Dir  Spd
kts
Gust
kts
hPa Trend Height
m
Period
s
Dir
24/11:30pm 20.6 E 9 12 1015.3 - 0.0 - Partly cloudy 10 - - - -
24/11:00pm 20.7 E 8 13 1015.5 - 0.0 - Partly cloudy 10 - - - -
24/10:30pm 20.9 E 8 12 1015.8 - 0.0 - Partly cloudy 10 - - - -
24/10:00pm 21.1 ESE 7 10 1015.9 - 0.0 - Partly cloudy 10 - - - -
24/09:30pm 21.0 E 7 10 1016.0 - 0.0 - Partly cloudy 10 - - - -
24/09:00pm 21.3 ESE 7 10 1015.9 - 0.0 - Cloudy 10 - - - -
24/08:30pm 21.0 E 9 13 1015.9 - 0.0 - Partly cloudy 10 - - - -
24/08:00pm 21.2 ESE 8 14 1015.9 - 0.0 - Partly cloudy 10 - - - -
24/07:30pm 21.2 ESE 10 16 1015.7 - 0.0 - Partly cloudy 10 - - - -
24/07:00pm 21.2 ESE 7 11 1015.5 - 0.0 - Partly cloudy 10 - - - -
24/06:30pm 21.5 ESE 10 16 1015.3 - 0.0 - Partly cloudy 10 - - - -
24/06:00pm 21.9 ESE 10 16 1015.2 - 0.0 - Mostly clear 10 - - - -
24/05:30pm 22.5 ESE 10 16 1015.0 - 0.0 - Partly cloudy 10 - - - -
24/05:00pm 23.3 ESE 11 15 1015.0 - 0.0 - Partly cloudy 10 - - - -
24/04:30pm 23.4 SE 12 18 1014.9 - 0.0 - Mostly clear 10 - - - -
24/04:00pm 23.6 ESE 13 18 1014.9 - 0.0 - Mostly clear 10 - - - -
24/03:30pm 23.8 SE 12 17 1015.1 - 0.0 - Partly cloudy 10 - - - -
24/03:00pm 24.4 SE 13 18 1015.2 - 0.0 - Mostly clear 10 - - - -
24/02:30pm 23.5 SE 13 17 1015.4 - 0.0 - Mostly clear 10 - - - -
24/02:00pm 23.3 SE 13 20 1015.6 - 0.0 - Partly cloudy 10 - - - -
24/01:30pm 23.6 SE 13 20 1015.9 - 0.0 - Mostly clear 10 - - - -
24/01:00pm 25.4 ESE 14 20 1016.0 - 0.0 - Mostly clear 10 - - - -
24/12:30pm 24.9 ESE 13 20 1016.3 - 0.0 - Mostly clear 10 - - - -
24/12:00pm 24.4 ESE 13 20 1016.5 - 0.0 - Mostly clear 10 - - - -
24/11:30am 24.2 ESE 14 20 1016.8 - 0.0 - Mostly clear 10 - - - -
24/11:00am 23.8 ESE 14 20 1017.0 - 0.0 - Mostly clear 10 - - - -
24/10:30am 24.1 ESE 14 20 1017.1 - 0.0 - Mostly clear 10 - - - -
24/10:00am 23.7 ESE 12 19 1017.3 - 0.0 - Mostly clear 10 - - - -
24/09:30am 23.0 ESE 13 18 1017.3 - 0.0 - Mostly clear 10 - - - -
24/09:00am 22.9 ESE 14 21 1017.2 - 0.4 - Mostly cloudy 10 - - - -
24/08:30am 23.2 ESE 12 18 1017.2 - 0.4 - Mostly clear 10 - - - -
24/08:00am 22.3 ESE 13 18 1017.1 - 0.4 - Mostly clear 10 - - - -
24/07:30am 21.3 ESE 12 19 1016.9 - 0.4 - Partly cloudy 10 - - - -
24/07:00am 20.4 ESE 6 8 1016.9 - 0.4 - Partly cloudy 10 - - - -
24/06:30am 20.1 ESE 8 13 1017.0 - 0.2 - Partly cloudy 10 - - - -
24/06:00am 18.7 ESE 7 11 1016.9 - 0.2 Showers Cloudy 10 - - - -
24/05:59am 18.6 ESE 8 11 1016.9 - 0.2 - Partly cloudy 10 - - - -
24/05:39am 19.1 ESE 12 18 1016.9 - 0.0 - Partly cloudy 6 - - - -
24/05:30am 19.5 ESE 11 18 1016.8 - 0.0 - Partly cloudy 10 - - - -
24/05:29am 19.3 ESE 11 18 1016.8 - 0.0 - Partly cloudy 10 - - - -
24/05:11am 18.9 ESE 14 21 1016.7 - 0.0 - Partly cloudy 6 - - - -
24/05:00am 19.8 ESE 14 21 1016.4 - 0.0 - Partly cloudy 10 - - - -
24/04:30am 20.8 ESE 14 22 1016.1 - 0.0 - Partly cloudy 10 - - - -
24/04:00am 20.7 ESE 11 16 1015.9 - 0.0 - Partly cloudy 10 - - - -
24/03:30am 20.7 ESE 9 14 1015.9 - 0.0 - Partly cloudy 10 - - - -
24/03:00am 21.2 ESE 11 19 1016.1 - 0.0 - Partly cloudy 10 - - - -
24/02:30am 21.1 ESE 10 16 1016.3 - 0.0 - Partly cloudy 10 - - - -
24/02:00am 21.2 ESE 9 16 1016.4 - 0.0 - Partly cloudy 10 - - - -
24/01:30am 21.3 ESE 9 16 1016.6 - 0.0 - Partly cloudy 10 - - - -
24/01:00am 21.3 ESE 9 17 1016.8 - 0.0 - Partly cloudy 10 - - - -
24/12:30am 21.2 ESE 9 15 1017.0 - 0.0 - Partly cloudy 10 - - - -
24/12:00am 21.1 ESE 11 17 1017.2 - 0.0 - Mostly cloudy 10 - - - -
 
Date/Time
EDT
Temp
°C
Wind Pressure Rain since
9am
mm
Weather Cloud Vis
km
Sea
Height
m
Swell
Dir  Spd
kts
Gust
kts
hPa Trend Height
m
Period
s
Dir
23/11:30pm 21.4 ESE 11 16 1017.5 - 0.0 - Partly cloudy 10 - - - -
23/11:00pm 21.4 ESE 11 19 1017.5 - 0.0 - Partly cloudy 10 - - - -
23/10:30pm 20.9 ESE 8 12 1017.6 - 0.0 - Partly cloudy 10 - - - -
23/10:00pm 21.6 ESE 8 14 1017.8 - 0.0 - Partly cloudy 10 - - - -
23/09:30pm 21.6 ESE 10 16 1017.8 - 0.0 - Partly cloudy 10 - - - -
23/09:00pm 21.6 ESE 9 15 1017.9 - 0.0 - Cloudy 10 - - - -
23/08:30pm 21.6 ESE 9 16 1017.7 - 0.0 - Partly cloudy 10 - - - -
23/08:00pm 21.6 ESE 8 11 1017.5 - 0.0 - Partly cloudy 10 - - - -
23/07:30pm 21.5 E 9 14 1017.4 - 0.0 - Partly cloudy 10 - - - -
23/07:00pm 21.5 ESE 11 18 1017.0 - 0.0 - - 10 - - - -
23/06:30pm 21.8 ESE 9 14 1016.8 - 0.0 - Partly cloudy 10 - - - -
23/06:00pm 22.0 ESE 10 14 1016.5 - 0.0 - Mostly cloudy 10 - - - -
23/05:30pm 22.6 ESE 10 16 1016.5 - 0.0 - Partly cloudy 10 - - - -
23/05:00pm 22.9 ESE 10 16 1016.3 - 0.0 - Mostly clear 10 - - - -
23/04:30pm 23.7 ESE 11 17 1016.3 - 0.0 - Mostly clear 10 - - - -
23/04:00pm 23.7 ESE 12 18 1016.3 - 0.0 - Mostly clear 10 - - - -
23/03:30pm 23.5 ESE 12 20 1016.1 - 0.0 - Mostly clear 10 - - - -
23/03:00pm 24.5 ESE 11 18 1016.0 - 0.0 - Mostly clear 10 - - - -
23/02:30pm 24.2 ESE 13 17 1016.3 - 0.0 - Mostly clear 10 - - - -
23/02:00pm 24.9 ESE 12 18 1016.5 - 0.0 - Mostly clear 10 - - - -
23/01:30pm 24.9 ESE 12 17 1016.7 - 0.0 - Mostly clear 10 - - - -
23/01:00pm 23.2 ESE 13 18 1017.0 - 0.0 - Mostly clear 10 - - - -
23/12:30pm 24.3 SE 13 18 1017.1 - 0.0 - Mostly clear 10 - - - -
23/12:00pm 24.8 SE 12 18 1017.2 - 0.0 - Mostly clear 10 - - - -

Other Formats:

Comma delimited format used in spreadsheet applications
http://www.bom.gov.au/fwo/IDN60701/IDN60701.94996.axf

JavaScript Object Notation format (JSON) in row-major order
http://www.bom.gov.au/fwo/IDN60701/IDN60701.94996.json